Flight Track Log - Related Links

Times and Time Zones

All times are in EDT time to prevent confusion due to time zone crossing. See the FLG3757 flight status page for this flight to view local times or setup timezone preferences in your user account.

Time Position Orientation Groundspeed Altitude Reporting Facility
EDT Latitude Longitude Course Direction KTS MPH feet Rate Location/Type
Tue 06:18:14 AM 42.1494 -75.9944 292° West 211 243 4,400  Level Cleveland Center
Tue 06:19:15 AM 42.1758 -76.0817 292° West 236 272 6,000 1,835 Climbing Cleveland Center
Tue 06:20:15 AM 42.2072 -76.1817 293° West 268 308 8,100 2,083 Climbing Cleveland Center
Tue 06:21:16 AM 42.2350 -76.2744 292° West 277 319 10,200 1,574 Climbing Cleveland Center
Tue 06:22:17 AM 42.2672 -76.3786 293° West 295 339 11,300 1,230 Climbing Cleveland Center
Tue 06:23:18 AM 42.3033 -76.5017 292° West 328 377 12,700 1,377 Climbing Cleveland Center
Tue 06:24:19 AM 42.3428 -76.6256 293° West 350 403 14,100 1,377 Climbing Cleveland Center
Tue 06:25:20 AM 42.3803 -76.7519 292° West 361 415 15,500 1,426 Climbing Cleveland Center
Tue 06:26:21 AM 42.4244 -76.9039 292° West 363 418 17,000 1,131 Climbing Cleveland Center
Tue 06:27:22 AM 42.4342 -77.0439 275° West 374 430 17,800 793 Climbing Cleveland Center
Tue 06:28:22 AM 42.4467 -77.1842 277° West 374 430 18,600 793 Climbing Cleveland Center
Tue 06:29:23 AM 42.4597 -77.3272 277° West 377 434 19,400 787 Climbing Cleveland Center
Tue 06:30:24 AM 42.4711 -77.4669 276° West 384 442 20,200 787 Climbing Cleveland Center
Tue 06:31:25 AM 42.4831 -77.6111 276° West 384 442 21,000 984 Climbing Cleveland Center
Tue 06:32:26 AM 42.4958 -77.7536 277° West 384 442 22,200 1,082 Climbing Cleveland Center
Tue 06:33:27 AM 42.5075 -77.9064 276° West 379 436 23,200 934 Climbing Cleveland Center
Tue 06:34:28 AM 42.5186 -78.0486 276° West 379 436 24,100 836 Climbing Cleveland Center
Tue 06:35:29 AM 42.5297 -78.1892 276° West 379 436 24,900 738 Climbing Cleveland Center
Tue 06:36:30 AM 42.5403 -78.3300 276° West 378 435 25,600 639 Climbing Cleveland Center
Tue 06:37:31 AM 42.5514 -78.4708 276° West 377 434 26,200 541 Climbing Cleveland Center
Tue 06:38:32 AM 42.5636 -78.6158 277° West 385 443 26,700 492 Climbing Cleveland Center
Tue 06:39:33 AM 42.5742 -78.7614 276° West 388 447 27,200 541 Climbing Cleveland Center
Tue 06:40:34 AM 42.5831 -78.9078 275° West 391 450 27,800 393 Climbing Cleveland Center
Tue 06:41:35 AM 42.5956 -79.0531 277° West 391 450 28,000 98 Climbing Cleveland Center
Tue 06:42:36 AM 42.6431 -79.1875 296° West 400 460 28,000  Level Cleveland Center
Tue 06:43:37 AM 42.6931 -79.3181 298° West 388 447 28,000  Level Cleveland Center
Tue 06:44:38 AM 42.7133 -79.4872 279° West 390 449 28,000  Level Cleveland Center
Tue 06:45:39 AM 42.7142 -79.6350 270° West 389 448 28,000  Level Cleveland Center
Tue 06:46:41 AM 42.7136 -79.7867 270° West 400 460 28,000  Level Cleveland Center
Tue 06:47:42 AM 42.7133 -79.9406 270° West 407 468 28,000  Level Cleveland Center
Tue 06:48:43 AM 42.7119 -80.0925 269° West 412 474 28,000  Level Cleveland Center
Tue 06:49:44 AM 42.7122 -80.2467 270° West 412 474 28,000  Level Cleveland Center
Tue 06:50:45 AM 42.7106 -80.3942 269° West 394 453 28,000  Level Cleveland Center
Tue 06:51:46 AM 42.7092 -80.5422 269° West 394 453 28,000  Level Cleveland Center
Tue 06:52:48 AM 42.7078 -80.6925 269° West 394 453 28,000  Level Cleveland Center
Tue 06:53:49 AM 42.7058 -80.8744 269° West 404 465 28,000  Level Cleveland Center
Tue 06:54:50 AM 42.6906 -81.0231 262° West 399 459 28,000 -590 Level Cleveland Center
Tue 06:55:51 AM 42.6736 -81.1717 261° West 399 459 26,800 -1,426 Descending Cleveland Center
Tue 06:56:52 AM 42.6583 -81.3153 262° West 388 447 25,100 -1,610 Descending Cleveland Center
Tue 06:57:54 AM 42.6417 -81.4517 261° West 369 425 23,500 -1,463 Descending Cleveland Center
Tue 06:58:55 AM 42.6264 -81.5861 261° West 362 417 22,100 -1,377 Descending Cleveland Center
Tue 06:59:56 AM 42.6111 -81.7119 261° West 343 395 20,700 -1,426 Descending Cleveland Center
Tue 07:00:57 AM 42.5947 -81.8442 260° West 338 389 19,200 -1,463 Descending Cleveland Center
Tue 07:01:59 AM 42.5806 -81.9664 261° West 332 382 17,700 -1,366 Descending Cleveland Center
Tue 07:03:00 AM 42.5653 -82.0861 260° West 326 375 16,400 -1,279 Descending Cleveland Center
Tue 07:04:01 AM 42.5503 -82.2031 260° West 317 365 15,100 -1,333 Descending Cleveland Center
Tue 07:04:39 AM 42.5408 -82.2819 261° West 304 350 14,200 -1,279 Descending Cleveland Center
Tue 07:05:02 AM 42.5372 -82.3150 262° West 303 349 13,800 -1,200 Descending Cleveland Center
Tue 07:05:39 AM 42.5272 -82.3906 260° West 295 339 13,000 -1,161 Descending Cleveland Center
Tue 07:06:04 AM 42.5233 -82.4239 261° West 296 341 12,600 -984 Descending Cleveland Center
Tue 07:06:40 AM 42.5128 -82.5075 260° West 292 336 12,000 -590 Descending Cleveland Center
Tue 07:07:05 AM 42.5100 -82.5308 261° West 293 337 12,000 -295 Level Cleveland Center
Tue 07:07:41 AM 42.4844 -82.6114 247° West 301 346 11,700 -492 Descending Cleveland Center
Tue 07:08:06 AM 42.4767 -82.6347 246° West 297 342 11,500 -984 Descending Cleveland Center
Tue 07:08:42 AM 42.4547 -82.7064 247° West 259 298 10,700 -1,180 Descending Cleveland Center
Tue 07:09:07 AM 42.4503 -82.7269 254° West 266 306 10,300 -1,881 Descending Cleveland Center
Tue 07:09:49 AM 42.4350 -82.8028 255° West 246 283 8,600 -2,226 Descending Cleveland Center
Tue 07:10:09 AM 42.4283 -82.8325 253° West 249 287 8,000 -1,745 Descending Cleveland Center
Tue 07:10:44 AM 42.4164 -82.8853 253° West 250 288 7,000 -1,770 Descending Cleveland Center
Tue 07:11:10 AM 42.4078 -82.9253 254° West 252 290 6,200 -984 Descending Cleveland Center
Tue 07:11:45 AM 42.3950 -82.9783 252° West 258 297 6,000 -197 Descending Cleveland Center
Tue 07:12:11 AM 42.3872 -83.0150 254° West 253 291 6,000 -800 Level Cleveland Center
Tue 07:12:45 AM 42.3733 -83.0714 252° West 245 282 5,200 -1,452 Descending Cleveland Center
Tue 07:13:13 AM 42.3664 -83.1011 252° West 248 285 4,500 -1,770 Descending Cleveland Center
Tue 07:13:46 AM 42.3500 -83.1586 249° West 243 280 3,400 -1,475 Descending Cleveland Center
Tue 07:14:14 AM 42.3433 -83.1853 251° West 245 282 3,000 -590 Descending Cleveland Center
Tue 07:14:47 AM 42.3233 -83.2311 239° Southwest 192 221 2,800 -295 Descending Cleveland Center
Tue 07:15:15 AM 42.3158 -83.2503 242° Southwest 203 234 2,700 -537 Descending Cleveland Center
Tue 07:15:54 AM 42.2881 -83.2828 221° Southwest 165 190 2,200 -677 Descending Cleveland Center
Tue 07:16:17 AM 42.2803 -83.2908 217° Southwest 175 201 2,000 -689 Descending Cleveland Center
Tue 07:16:55 AM 42.2525 -83.3089 206° Southwest 123 142 1,500 -689 Descending Cleveland Center
Tue 07:17:18 AM 42.2472 -83.3139 215° Southwest 142 163 1,300 -689 Descending Cleveland Center
Tue 07:17:56 AM 42.2214 -83.3325 208° Southwest 133 153 800 -393 Descending Cleveland Center
Tue 07:18:19 AM 42.2103 -83.3411 210° Southwest 134 154 900 261 Climbing Cleveland Center
Tue 07:20:00 AM 42.2000 -83.3500 236° Southwest  Level FlightAware Approximate
Tue 07:27:00 AM 42.2124 -83.3534 236° Southwest  Level Estimated

Login

Don't have an account? Register now (free) for customized features, flight alerts, and more!